createdAt,value
2018-04-24T00:00:35.787Z,76.67
2018-04-24T00:01:35.974Z,76.67
2018-04-24T00:02:36.148Z,76.29
2018-04-24T00:03:36.327Z,76.20
2018-04-24T00:04:36.513Z,76.35
2018-04-24T00:05:36.686Z,76.16
2018-04-24T00:06:36.870Z,76.25
2018-04-24T00:07:37.049Z,76.25
2018-04-24T00:08:37.226Z,76.06
2018-04-24T00:09:37.412Z,76.48
2018-04-24T00:10:37.590Z,76.64
2018-04-24T00:11:37.766Z,76.39
2018-04-24T00:12:37.947Z,76.16
2018-04-24T00:13:38.136Z,76.25
2018-04-24T00:14:38.309Z,76.82
2018-04-24T00:15:38.487Z,76.35
2018-04-24T00:16:38.666Z,76.54
2018-04-24T00:17:38.851Z,76.64
2018-04-24T00:18:39.026Z,76.64
2018-04-24T00:19:39.208Z,76.64
2018-04-24T00:20:39.387Z,76.73
2018-04-24T00:21:39.569Z,76.73
2018-04-24T00:22:39.750Z,77.40
2018-04-24T00:23:39.929Z,77.20
2018-04-24T00:24:40.102Z,76.44
2018-04-24T00:25:40.286Z,76.64
2018-04-24T00:26:40.467Z,76.44
2018-04-24T00:27:40.645Z,76.44
2018-04-24T00:28:40.829Z,76.64
2018-04-24T00:29:41.004Z,76.64
2018-04-24T00:30:41.183Z,76.73
2018-04-24T00:31:41.362Z,76.54
2018-04-24T00:32:41.542Z,77.40
2018-04-24T00:33:41.730Z,77.20
2018-04-24T00:34:41.900Z,77.87
2018-04-24T00:35:42.084Z,77.59
2018-04-24T00:36:42.269Z,77.30
2018-04-24T00:37:42.441Z,77.20
2018-04-24T00:38:42.621Z,77.20
2018-04-24T00:39:42.796Z,77.49
2018-04-24T00:40:42.975Z,77.74
2018-04-24T00:41:43.159Z,77.83
2018-04-24T00:42:43.336Z,78.59
2018-04-24T00:43:43.520Z,78.69
2018-04-24T00:44:43.697Z,78.22
2018-04-24T00:45:43.895Z,78.03
2018-04-24T00:46:44.052Z,77.93
2018-04-24T00:47:44.230Z,77.74
2018-04-24T00:48:44.413Z,77.87
2018-04-24T00:49:44.589Z,77.83
2018-04-24T00:50:44.771Z,77.93
2018-04-24T00:51:44.956Z,78.12
2018-04-24T00:52:45.135Z,78.22
2018-04-24T00:53:45.317Z,78.59
2018-04-24T00:54:45.488Z,79.46
2018-04-24T00:55:45.663Z,79.27
2018-04-24T00:56:45.842Z,78.88
2018-04-24T00:57:46.264Z,78.22
2018-04-24T00:58:46.214Z,78.69
2018-04-24T00:59:46.380Z,78.98
2018-04-24T01:00:46.565Z,79.17
2018-04-24T01:01:46.744Z,79.36
2018-04-24T01:02:46.922Z,78.41
2018-04-24T01:03:47.184Z,78.78
2018-04-24T01:04:47.283Z,78.41
2018-04-24T01:05:47.462Z,78.41
2018-04-24T01:06:47.677Z,78.31
2018-04-24T01:07:47.833Z,78.31
2018-04-24T01:08:47.998Z,78.88
2018-04-24T01:09:48.185Z,78.41
2018-04-24T01:10:48.361Z,78.98
2018-04-24T01:11:48.542Z,79.64
2018-04-24T01:12:48.725Z,79.27
2018-04-24T01:13:48.895Z,79.64
2018-04-24T01:14:49.075Z,79.93
2018-04-24T01:15:49.257Z,80.22
2018-04-24T01:16:49.433Z,79.55
2018-04-24T01:17:49.615Z,79.46
2018-04-24T01:18:49.792Z,79.27
2018-04-24T01:19:49.973Z,79.17
2018-04-24T01:20:50.150Z,80.02
2018-04-24T01:21:50.321Z,80.60
2018-04-24T01:22:50.507Z,80.27
2018-04-24T01:23:50.688Z,80.46
2018-04-24T01:24:50.872Z,80.46
2018-04-24T01:25:51.064Z,80.18
2018-04-24T01:26:51.226Z,80.08
2018-04-24T01:27:51.404Z,80.18
2018-04-24T01:28:51.594Z,79.99
2018-04-24T01:29:51.755Z,80.36
2018-04-24T01:30:51.934Z,80.36
2018-04-24T01:31:52.117Z,80.27
2018-04-24T01:32:52.294Z,79.83
2018-04-24T01:33:52.473Z,80.02
2018-04-24T01:34:52.651Z,80.27
2018-04-24T01:35:53.076Z,80.75
2018-04-24T01:36:53.009Z,81.79
2018-04-24T01:37:53.190Z,81.89
2018-04-24T01:38:53.373Z,82.37
2018-04-24T01:39:53.546Z,83.98
2018-04-24T01:40:53.733Z,84.08
2018-04-24T01:41:53.909Z,84.08
2018-04-24T01:42:54.087Z,83.98
2018-04-24T01:43:54.266Z,83.70
2018-04-24T01:45:54.613Z,83.98
2018-04-24T01:46:54.791Z,83.51
2018-04-24T01:47:54.970Z,82.65
2018-04-24T01:48:55.153Z,82.84
2018-04-24T01:49:55.329Z,83.03
2018-04-24T01:50:55.508Z,83.89
2018-04-24T01:51:55.690Z,83.32
2018-04-24T01:52:55.864Z,83.41
2018-04-24T01:53:56.055Z,83.61
2018-04-24T01:55:56.391Z,83.98
2018-04-24T01:56:56.570Z,84.46
2018-04-24T01:57:56.749Z,84.75
2018-04-24T01:58:56.929Z,84.65
2018-04-24T01:59:57.112Z,84.08
2018-04-24T02:00:57.298Z,84.36
2018-04-24T02:01:57.484Z,84.08
2018-04-24T02:02:57.658Z,84.17
2018-04-24T02:03:57.834Z,83.70
2018-04-24T02:04:58.016Z,83.41
2018-04-24T02:05:58.192Z,83.32
2018-04-24T02:06:58.372Z,83.51
2018-04-24T02:07:58.553Z,83.70
2018-04-24T02:08:58.729Z,83.51
2018-04-24T02:09:58.904Z,82.84
2018-04-24T02:10:59.083Z,82.08
2018-04-24T02:11:59.262Z,81.60
2018-04-24T02:12:59.452Z,81.60
2018-04-24T02:13:59.620Z,81.51
2018-04-24T02:14:59.799Z,81.98
2018-04-24T02:15:59.981Z,81.51
2018-04-24T02:17:00.170Z,82.08
2018-04-24T02:18:00.338Z,81.60
2018-04-24T02:19:00.516Z,82.37
2018-04-24T02:20:00.693Z,82.46
2018-04-24T02:21:00.877Z,82.37
2018-04-24T02:22:01.050Z,82.46
2018-04-24T02:23:01.223Z,81.60
2018-04-24T02:24:01.401Z,82.08
2018-04-24T02:25:01.681Z,81.89
2018-04-24T02:26:01.757Z,81.98
2018-04-24T02:27:01.937Z,82.84
2018-04-24T02:28:02.113Z,83.51
2018-04-24T02:29:02.572Z,83.89
2018-04-24T02:30:02.466Z,83.80
2018-04-24T02:31:02.646Z,83.51
2018-04-24T02:32:02.826Z,83.41
2018-04-24T02:33:03.002Z,83.61
2018-04-24T02:34:03.181Z,83.51
2018-04-24T02:35:03.357Z,83.51
2018-04-24T02:36:03.535Z,83.98
2018-04-24T02:37:03.714Z,83.80
2018-04-24T02:38:03.899Z,83.80
2018-04-24T02:39:04.333Z,83.98
2018-04-24T02:40:04.242Z,83.98
2018-04-24T02:41:04.424Z,84.36
2018-04-24T02:42:04.610Z,84.65
2018-04-24T02:43:04.776Z,84.46
2018-04-24T02:44:04.958Z,84.56
2018-04-24T02:45:05.142Z,84.89
2018-04-24T02:46:05.313Z,84.46
2018-04-24T02:47:05.500Z,84.84
2018-04-24T02:48:05.673Z,84.65
2018-04-24T02:49:05.853Z,84.17
2018-04-24T02:50:06.042Z,83.41
2018-04-24T02:51:06.213Z,83.51
2018-04-24T02:52:06.389Z,82.37
2018-04-24T02:53:06.574Z,82.56
2018-04-24T02:54:06.744Z,82.56
2018-04-24T02:55:06.925Z,82.27
2018-04-24T02:56:07.102Z,82.27
2018-04-24T02:57:07.285Z,82.23
2018-04-24T02:58:07.463Z,82.46
2018-04-24T02:59:07.651Z,83.09
2018-04-24T03:00:07.822Z,83.61
2018-04-24T03:01:07.999Z,83.70
2018-04-24T03:02:08.183Z,83.22
2018-04-24T03:03:08.366Z,82.65
2018-04-24T03:04:08.543Z,82.37
2018-04-24T03:05:08.714Z,82.08
2018-04-24T03:06:08.897Z,82.14
2018-04-24T03:07:09.069Z,82.14
2018-04-24T03:08:09.256Z,82.51
2018-04-24T03:09:09.429Z,82.42
2018-04-24T03:10:09.612Z,82.80
2018-04-24T03:11:09.791Z,82.42
2018-04-24T03:12:09.972Z,82.32
2018-04-24T03:13:10.162Z,82.70
2018-04-24T03:14:10.338Z,82.42
2018-04-24T03:15:10.519Z,82.42
2018-04-24T03:16:10.688Z,82.70
2018-04-24T03:17:10.869Z,82.23
2018-04-24T03:18:11.055Z,82.70
2018-04-24T03:19:11.220Z,82.42
2018-04-24T03:20:11.401Z,83.47
2018-04-24T03:21:11.581Z,83.28
2018-04-24T03:22:11.760Z,82.99
2018-04-24T03:23:11.930Z,82.61
2018-04-24T03:24:12.109Z,82.42
2018-04-24T03:25:12.294Z,82.61
2018-04-24T03:26:12.477Z,82.32
2018-04-24T03:27:12.644Z,82.70
2018-04-24T03:28:12.815Z,83.47
2018-04-24T03:29:12.994Z,83.37
2018-04-24T03:30:13.176Z,83.56
2018-04-24T03:31:13.352Z,83.18
2018-04-24T03:32:13.529Z,83.47
2018-04-24T03:33:13.948Z,85.28
2018-04-24T03:34:13.880Z,86.32
2018-04-24T03:35:14.059Z,86.32
2018-04-24T03:36:14.481Z,87.42
2018-04-24T03:37:14.418Z,87.65
2018-04-24T03:38:14.600Z,87.32
2018-04-24T03:39:14.775Z,87.99
2018-04-24T03:40:14.952Z,88.09
2018-04-24T03:41:15.126Z,88.28
2018-04-24T03:42:15.306Z,88.28
2018-04-24T03:43:15.486Z,88.13
2018-04-24T03:44:15.664Z,87.32
2018-04-24T03:45:15.832Z,85.94
2018-04-24T03:46:16.036Z,84.76
2018-04-24T03:47:16.190Z,84.95
2018-04-24T03:48:16.364Z,84.42
2018-04-24T03:49:16.540Z,84.47
2018-04-24T03:50:16.716Z,87.23
2018-04-24T03:51:16.917Z,87.90
2018-04-24T03:52:17.069Z,88.09
2018-04-24T03:53:17.254Z,87.90
2018-04-24T03:54:17.432Z,87.52
2018-04-24T03:55:17.606Z,87.32
2018-04-24T03:56:17.781Z,87.18
2018-04-24T03:57:18.025Z,87.08
2018-04-24T03:58:18.137Z,88.18
2018-04-24T03:59:18.315Z,88.09
2018-04-24T04:00:18.497Z,87.61
2018-04-24T04:01:18.673Z,87.71
2018-04-24T04:02:18.847Z,88.37
2018-04-24T04:03:19.036Z,88.85
2018-04-24T04:04:19.201Z,89.14
2018-04-24T04:05:19.379Z,89.04
2018-04-24T04:06:19.559Z,89.32
2018-04-24T04:07:19.729Z,88.75
2018-04-24T04:08:19.937Z,88.09
2018-04-24T04:09:20.089Z,87.99
2018-04-24T04:10:20.276Z,88.09
2018-04-24T04:11:20.447Z,88.09
2018-04-24T04:12:20.621Z,87.90
2018-04-24T04:13:20.802Z,88.75
2018-04-24T04:14:20.985Z,88.46
2018-04-24T04:15:21.153Z,88.28
2018-04-24T04:16:21.330Z,88.66
2018-04-24T04:17:21.509Z,88.75
2018-04-24T04:18:21.684Z,88.56
2018-04-24T04:19:21.863Z,88.56
2018-04-24T04:20:22.042Z,88.56
2018-04-24T04:21:22.219Z,88.09
2018-04-24T04:22:22.460Z,88.28
2018-04-24T04:23:22.577Z,88.56
2018-04-24T04:24:22.764Z,87.80
2018-04-24T04:25:22.934Z,87.32
2018-04-24T04:26:23.114Z,87.04
2018-04-24T04:27:23.293Z,86.85
2018-04-24T04:28:23.473Z,86.66
2018-04-24T04:29:23.651Z,86.85
2018-04-24T04:30:23.835Z,85.71
2018-04-24T04:31:24.008Z,86.13
2018-04-24T04:32:24.188Z,85.47
2018-04-24T04:33:24.363Z,85.37
2018-04-24T04:34:24.545Z,85.28
2018-04-24T04:35:24.719Z,84.99
2018-04-24T04:36:24.906Z,85.47
2018-04-24T04:37:25.086Z,85.56
2018-04-24T04:38:25.263Z,84.80
2018-04-24T04:39:25.451Z,84.80
2018-04-24T04:40:25.636Z,85.37
2018-04-24T04:41:25.810Z,85.28
2018-04-24T04:42:25.977Z,85.85
2018-04-24T04:43:26.150Z,85.70
2018-04-24T04:44:26.328Z,85.28
2018-04-24T04:45:26.507Z,84.36
2018-04-24T04:46:26.687Z,85.22
2018-04-24T04:47:26.865Z,84.65
2018-04-24T04:48:27.039Z,84.08
2018-04-24T04:49:27.218Z,84.75
2018-04-24T04:50:27.398Z,84.84
2018-04-24T04:51:27.585Z,85.13
2018-04-24T04:52:27.747Z,85.70
2018-04-24T04:53:27.938Z,85.22
2018-04-24T04:54:28.112Z,84.94
2018-04-24T04:55:28.294Z,84.36
2018-04-24T04:56:28.473Z,84.46
2018-04-24T04:57:28.891Z,85.22
2018-04-24T04:58:28.827Z,85.13
2018-04-24T04:59:29.007Z,84.46
2018-04-24T05:00:29.184Z,85.22
2018-04-24T05:01:29.369Z,84.52
2018-04-24T05:02:29.554Z,84.75
2018-04-24T05:03:29.977Z,85.13
2018-04-24T05:04:29.915Z,85.70
2018-04-24T05:05:30.100Z,85.32
2018-04-24T05:06:30.276Z,85.70
2018-04-24T05:07:30.468Z,85.47
2018-04-24T05:08:30.636Z,85.37
2018-04-24T05:09:30.818Z,85.51
2018-04-24T05:10:30.989Z,85.13
2018-04-24T05:11:31.167Z,84.75
2018-04-24T05:12:31.346Z,83.55
2018-04-24T05:13:31.525Z,82.60
2018-04-24T05:14:31.704Z,82.50
2018-04-24T05:15:31.897Z,82.50
2018-04-24T05:16:32.078Z,83.65
2018-04-24T05:17:32.275Z,83.51
2018-04-24T05:18:32.430Z,83.45
2018-04-24T05:19:32.598Z,83.36
2018-04-24T05:20:32.779Z,82.60
2018-04-24T05:21:32.953Z,83.55
2018-04-24T05:22:33.129Z,83.26
2018-04-24T05:23:33.315Z,83.65
2018-04-24T05:24:33.736Z,83.36
2018-04-24T05:25:33.678Z,83.36
2018-04-24T05:26:33.829Z,83.26
2018-04-24T05:28:34.175Z,82.79
2018-04-24T05:29:34.358Z,82.50
2018-04-24T05:30:34.541Z,82.07
2018-04-24T05:31:34.718Z,81.49
2018-04-24T05:32:34.891Z,81.68
2018-04-24T05:33:35.080Z,80.83
2018-04-24T05:34:35.255Z,80.26
2018-04-24T05:35:35.436Z,80.44
2018-04-24T05:36:35.617Z,80.73
2018-04-24T05:37:35.796Z,80.73
2018-04-24T05:38:35.979Z,80.64
2018-04-24T05:39:36.157Z,80.54
2018-04-24T05:40:36.341Z,80.54
2018-04-24T05:41:36.520Z,80.16
2018-04-24T05:42:36.700Z,79.21
2018-04-24T05:43:36.896Z,79.63
2018-04-24T05:44:37.059Z,77.95
2018-04-24T05:45:37.243Z,76.23
2018-04-24T05:46:37.423Z,75.60
2018-04-24T05:47:37.606Z,74.46
2018-04-24T05:48:37.784Z,72.97
2018-04-24T05:49:37.958Z,72.39
2018-04-24T05:50:38.145Z,72.05
2018-04-24T05:51:38.719Z,71.92
2018-04-24T05:52:38.517Z,72.11
2018-04-24T05:53:38.702Z,72.49
2018-04-24T05:54:38.882Z,72.11
2018-04-24T05:55:39.065Z,72.30
2018-04-24T05:56:39.245Z,71.92
2018-04-24T05:57:39.423Z,72.20
2018-04-24T05:58:39.626Z,72.64
2018-04-24T05:59:39.829Z,72.93
2018-04-24T06:00:40.013Z,73.41
2018-04-24T06:01:40.208Z,73.41
2018-04-24T06:02:40.377Z,74.11
2018-04-24T06:03:40.572Z,73.35
2018-04-24T06:04:40.755Z,72.74
2018-04-24T06:05:40.935Z,73.54
2018-04-24T06:06:41.127Z,73.25
2018-04-24T06:07:41.305Z,71.67
2018-04-24T06:08:41.515Z,70.90
2018-04-24T06:09:41.673Z,70.27
2018-04-24T06:10:41.853Z,71.00
2018-04-24T06:11:42.037Z,71.47
2018-04-24T06:12:42.261Z,71.67
2018-04-24T06:13:42.404Z,71.13
2018-04-24T06:14:42.593Z,71.00
2018-04-24T06:15:42.780Z,70.94
2018-04-24T06:16:42.971Z,70.17
2018-04-24T06:17:43.140Z,70.07
2018-04-24T06:18:43.325Z,70.36
2018-04-24T06:19:43.511Z,70.65
2018-04-24T06:20:43.693Z,70.36
2018-04-24T06:21:43.880Z,70.07
2018-04-24T06:22:44.069Z,69.60
2018-04-24T06:23:44.243Z,68.77
2018-04-24T06:24:44.427Z,68.49
2018-04-24T06:25:44.615Z,68.58
2018-04-24T06:26:44.806Z,69.06
2018-04-24T06:27:44.986Z,68.62
2018-04-24T06:28:45.185Z,66.93
2018-04-24T06:29:45.350Z,65.49
2018-04-24T06:30:45.533Z,66.51
2018-04-24T06:31:45.721Z,65.39
2018-04-24T06:32:45.900Z,64.95
2018-04-24T06:33:46.085Z,63.80
2018-04-24T06:34:46.276Z,64.37
2018-04-24T06:35:46.463Z,64.28
2018-04-24T06:36:46.663Z,63.83
2018-04-24T06:37:46.819Z,63.70
2018-04-24T06:38:47.009Z,64.66
2018-04-24T06:39:47.194Z,63.64
2018-04-24T06:40:47.378Z,62.62
2018-04-24T06:41:47.567Z,62.68
2018-04-24T06:42:47.745Z,62.68
2018-04-24T06:43:47.928Z,62.20
2018-04-24T06:44:48.116Z,62.68
2018-04-24T06:45:48.301Z,63.16
2018-04-24T06:46:48.489Z,62.68
2018-04-24T06:47:48.736Z,63.70
2018-04-24T06:48:48.850Z,65.71
2018-04-24T06:49:49.036Z,66.06
2018-04-24T06:50:49.228Z,65.33
2018-04-24T06:51:49.407Z,65.68
2018-04-24T06:52:49.592Z,67.47
2018-04-24T06:53:49.786Z,67.37
2018-04-24T06:54:49.967Z,67.76
2018-04-24T06:55:50.150Z,68.90
2018-04-24T06:56:50.347Z,68.71
2018-04-24T06:57:50.517Z,68.33
2018-04-24T06:58:50.711Z,68.33
2018-04-24T06:59:50.878Z,68.36
2018-04-24T07:00:51.147Z,67.69
2018-04-24T07:01:51.490Z,67.60
2018-04-24T07:02:51.430Z,67.41
2018-04-24T07:03:51.623Z,67.50
2018-04-24T07:04:51.800Z,67.66
2018-04-24T07:05:51.985Z,67.79
2018-04-24T07:06:52.166Z,68.04
2018-04-24T07:07:52.350Z,69.32
2018-04-24T07:08:52.537Z,68.46
2018-04-24T07:09:52.718Z,68.74
2018-04-24T07:10:52.913Z,68.36
2018-04-24T07:11:53.089Z,67.41
2018-04-24T07:12:53.280Z,67.47
2018-04-24T07:13:53.448Z,67.60
2018-04-24T07:14:53.631Z,67.44
2018-04-24T07:15:53.816Z,67.05
2018-04-24T07:16:54.079Z,66.38
2018-04-24T07:17:54.441Z,66.38
2018-04-24T07:18:54.376Z,66.86
2018-04-24T07:19:54.563Z,66.00
2018-04-24T07:20:54.748Z,65.20
2018-04-24T07:21:54.941Z,64.40
2018-04-24T07:22:55.123Z,64.02
2018-04-24T07:23:55.306Z,64.89
2018-04-24T07:24:55.493Z,65.62
2018-04-24T07:25:55.675Z,65.36
2018-04-24T07:26:55.856Z,63.76
2018-04-24T07:28:56.217Z,63.67
2018-04-24T07:29:56.409Z,63.96
2018-04-24T07:30:56.596Z,62.71
2018-04-24T07:31:56.770Z,61.88
2018-04-24T07:32:57.029Z,60.95
2018-04-24T07:33:57.145Z,60.28
2018-04-24T07:34:57.328Z,60.57
2018-04-24T07:35:57.512Z,59.73
2018-04-24T07:36:57.761Z,59.54
2018-04-24T07:37:57.883Z,59.44
2018-04-24T07:38:58.072Z,57.23
2018-04-24T07:39:58.252Z,57.14
2018-04-24T07:40:58.486Z,54.47
2018-04-24T07:41:58.628Z,54.06
2018-04-24T07:42:58.808Z,53.23
2018-04-24T07:43:58.997Z,53.39
2018-04-24T07:44:59.184Z,53.30
2018-04-24T07:45:59.369Z,54.21
2018-04-24T07:46:59.565Z,53.91
2018-04-24T07:47:59.742Z,53.36
2018-04-24T07:49:00.181Z,53.36
2018-04-24T07:50:00.116Z,53.36
2018-04-24T07:51:00.307Z,53.85
2018-04-24T07:52:00.487Z,53.20
2018-04-24T07:53:00.679Z,51.47
2018-04-24T07:54:00.859Z,50.80
2018-04-24T07:55:01.044Z,51.06
2018-04-24T07:56:01.231Z,52.00
2018-04-24T07:57:01.424Z,53.15
2018-04-24T07:58:01.608Z,52.48
2018-04-24T07:59:01.795Z,52.76
2018-04-24T08:00:01.977Z,51.93
2018-04-24T08:01:02.168Z,52.98
2018-04-24T08:02:02.351Z,52.40
2018-04-24T08:03:02.532Z,50.42
2018-04-24T08:04:02.721Z,49.82
2018-04-24T08:05:02.908Z,51.23
2018-04-24T08:06:03.091Z,52.02
2018-04-24T08:20:25.579Z,49.82
2018-04-24T08:21:25.765Z,49.17
2018-04-24T08:22:25.951Z,48.88
2018-04-24T08:23:26.137Z,48.33
2018-04-24T08:24:26.319Z,47.94
2018-04-24T08:25:26.503Z,46.12
2018-04-24T08:26:26.688Z,46.02
2018-04-24T08:27:26.874Z,44.68
2018-04-24T08:28:27.051Z,45.76
2018-04-24T08:29:27.242Z,45.28
2018-04-24T08:30:27.418Z,44.82
2018-04-24T08:31:27.607Z,43.66
2018-04-24T08:32:27.793Z,44.82
2018-04-24T08:33:28.083Z,45.20
2018-04-24T08:34:28.155Z,45.01
2018-04-24T08:35:28.338Z,46.04
2018-04-24T08:36:28.525Z,47.61
2018-04-24T08:37:28.722Z,46.19
2018-04-24T08:38:28.909Z,43.97
2018-04-24T08:39:29.092Z,43.41
2018-04-24T08:40:29.283Z,45.03
2018-04-24T08:41:29.466Z,44.26
2018-04-24T08:42:29.659Z,43.59
2018-04-24T08:43:29.854Z,43.68
2018-04-24T08:44:30.045Z,44.72
2018-04-24T08:45:30.233Z,44.26
2018-04-24T08:46:30.421Z,44.35
2018-04-24T08:47:30.609Z,44.34
2018-04-24T08:48:30.868Z,43.40
2018-04-24T08:49:30.990Z,43.37
2018-04-24T08:50:31.180Z,43.68
2018-04-24T08:51:31.364Z,43.11
2018-04-24T08:52:31.566Z,43.47
2018-04-24T08:53:31.751Z,42.60
2018-04-24T08:54:31.960Z,42.89
2018-04-24T08:55:32.149Z,43.64
2018-04-24T08:56:32.365Z,44.02
2018-04-24T08:57:32.517Z,44.02
2018-04-24T08:58:32.696Z,43.64
2018-04-24T08:59:32.885Z,42.97
2018-04-24T09:00:33.085Z,43.08
2018-04-24T09:01:33.281Z,42.76
2018-04-24T09:02:33.452Z,42.30
2018-04-24T09:03:33.648Z,42.39
2018-04-24T09:04:33.822Z,43.35
2018-04-24T09:05:34.037Z,42.89
2018-04-24T09:06:34.225Z,42.53
2018-04-24T09:07:34.417Z,43.37
2018-04-24T09:08:34.680Z,43.76
2018-04-24T09:09:34.793Z,43.57
2018-04-24T09:10:34.983Z,43.47
2018-04-24T09:11:35.164Z,42.50
2018-04-24T09:12:35.353Z,42.41
2018-04-24T09:13:35.538Z,43.01
2018-04-24T09:14:35.726Z,42.41
2018-04-24T09:15:35.916Z,42.43
2018-04-24T09:16:36.103Z,42.43
2018-04-24T09:17:36.289Z,41.97
2018-04-24T09:18:36.484Z,42.33
2018-04-24T09:19:36.660Z,42.33
2018-04-24T09:20:36.861Z,42.33
2018-04-24T09:21:37.049Z,43.49
2018-04-24T09:22:37.217Z,44.26
2018-04-24T09:23:37.402Z,43.80
2018-04-24T09:24:37.832Z,44.11
2018-04-24T09:25:37.773Z,43.54
2018-04-24T09:26:37.974Z,42.67
2018-04-24T09:27:38.154Z,42.02
2018-04-24T09:28:38.340Z,41.34
2018-04-24T09:29:38.531Z,40.59
2018-04-24T09:30:38.725Z,43.44
2018-04-24T09:31:38.898Z,43.44
2018-04-24T09:32:39.467Z,43.63
2018-04-24T09:33:39.339Z,44.02
2018-04-24T09:34:39.442Z,43.63
2018-04-24T09:35:39.640Z,43.80
2018-04-24T09:36:39.828Z,43.44
2018-04-24T09:37:40.008Z,42.49
2018-04-24T09:38:40.192Z,42.86
2018-04-24T09:39:40.403Z,42.59
2018-04-24T09:40:40.579Z,41.92
2018-04-24T09:41:40.781Z,41.72
2018-04-24T09:42:40.971Z,41.44
2018-04-24T09:43:41.152Z,41.63
2018-04-24T09:44:41.353Z,41.68
2018-04-24T09:45:41.537Z,42.16
2018-04-24T09:46:41.719Z,42.07
2018-04-24T09:47:41.912Z,42.82
2018-04-24T09:48:42.120Z,44.43
2018-04-24T09:49:42.289Z,44.05
2018-04-24T09:50:42.474Z,43.76
2018-04-24T09:51:42.661Z,44.24
2018-04-24T09:52:42.826Z,43.01
2018-04-24T09:53:43.017Z,42.43
2018-04-24T09:54:43.212Z,41.97
2018-04-24T09:55:43.419Z,41.59
2018-04-24T09:56:43.634Z,41.59
2018-04-24T09:57:43.874Z,41.78
2018-04-24T09:58:43.978Z,41.86
2018-04-24T09:59:44.172Z,41.86
2018-04-24T10:00:44.368Z,42.14
2018-04-24T10:01:44.554Z,42.22
2018-04-24T10:02:44.750Z,42.60
2018-04-24T10:03:44.938Z,42.97
2018-04-24T10:04:45.111Z,43.37
2018-04-24T10:05:45.297Z,43.64
2018-04-24T10:06:45.475Z,43.93
2018-04-24T10:07:45.686Z,43.35
2018-04-24T10:08:45.854Z,42.89
2018-04-24T10:10:47.039Z,42.89
2018-04-24T10:11:46.467Z,41.95
2018-04-24T10:12:46.655Z,40.91
2018-04-24T10:13:46.844Z,40.24
2018-04-24T10:14:47.081Z,41.01
2018-04-24T10:15:47.253Z,40.24
2018-04-24T10:16:47.441Z,41.18
2018-04-24T10:17:47.702Z,42.03
2018-04-24T10:18:47.793Z,42.91
2018-04-24T10:19:48.044Z,42.72
2018-04-24T10:20:48.184Z,43.18
2018-04-24T10:21:48.359Z,43.37
2018-04-24T10:22:48.545Z,42.33
2018-04-24T10:23:48.730Z,42.65
2018-04-24T10:24:48.957Z,41.88
2018-04-24T10:25:49.104Z,41.30
2018-04-24T10:26:49.280Z,40.89
2018-04-24T10:27:49.460Z,41.30
2018-04-24T10:28:49.649Z,40.53
2018-04-24T10:29:49.836Z,39.95
2018-04-24T10:30:50.048Z,40.34
2018-04-24T10:31:50.201Z,40.22
2018-04-24T10:32:50.392Z,40.70
2018-04-24T10:33:50.579Z,41.08
2018-04-24T10:34:50.760Z,42.12
2018-04-24T10:35:50.959Z,42.43
2018-04-24T10:36:51.133Z,42.05
2018-04-24T10:37:51.320Z,41.86
2018-04-24T10:38:54.046Z,41.56
2018-04-24T10:39:51.728Z,41.47
2018-04-24T10:40:51.917Z,41.56
2018-04-24T10:41:52.106Z,41.20
2018-04-24T10:42:52.294Z,40.80
2018-04-24T10:43:52.575Z,40.12
2018-04-24T10:44:52.714Z,40.22
2018-04-24T10:45:52.867Z,40.22
2018-04-24T10:46:53.052Z,39.36
2018-04-24T10:47:53.239Z,39.36
2018-04-24T10:48:53.424Z,39.47
2018-04-24T10:49:53.614Z,39.09
2018-04-24T10:50:53.802Z,39.18
2018-04-24T10:51:54.172Z,38.70
2018-04-24T10:52:54.178Z,38.51
2018-04-24T10:53:54.378Z,38.51
2018-04-24T10:54:54.562Z,39.37
2018-04-24T10:55:54.836Z,39.76
2018-04-24T10:56:54.936Z,39.95
2018-04-24T10:57:55.137Z,40.34
2018-04-24T10:58:55.333Z,40.89
2018-04-24T10:59:55.513Z,41.55
2018-04-24T11:00:55.702Z,40.89
2018-04-24T11:01:55.911Z,40.99
2018-04-24T11:02:56.379Z,40.31
2018-04-24T11:03:56.267Z,40.89
2018-04-24T11:04:56.480Z,40.58
2018-04-24T11:05:56.624Z,41.74
2018-04-24T11:06:56.809Z,41.64
2018-04-24T11:07:56.994Z,41.55
2018-04-24T11:08:57.177Z,41.55
2018-04-24T11:09:58.079Z,42.10
2018-04-24T11:10:57.618Z,42.77
2018-04-24T11:11:57.880Z,42.68
2018-04-24T11:12:57.995Z,42.41
2018-04-24T11:13:58.177Z,42.32
2018-04-24T11:14:58.367Z,42.12
2018-04-24T11:15:58.583Z,41.74
2018-04-24T11:16:58.745Z,41.62
2018-04-24T11:17:58.933Z,42.77
2018-04-24T11:18:59.112Z,43.54
2018-04-24T11:19:59.298Z,43.84
2018-04-24T11:20:59.497Z,43.84
2018-04-24T11:21:59.685Z,43.54
2018-04-24T11:22:59.861Z,43.07
2018-04-24T11:24:00.047Z,43.26
2018-04-24T11:25:00.236Z,43.54
2018-04-24T11:26:00.409Z,43.07
2018-04-24T11:27:00.601Z,42.77
2018-04-24T11:28:00.789Z,42.68
2018-04-24T11:29:00.968Z,42.58
2018-04-24T11:30:01.157Z,42.68
2018-04-24T11:31:01.359Z,42.68
2018-04-24T11:32:01.551Z,43.16
2018-04-24T11:33:01.746Z,43.07
2018-04-24T11:34:01.953Z,42.97
2018-04-24T11:35:02.121Z,42.97
2018-04-24T11:36:02.386Z,43.45
2018-04-24T11:37:02.490Z,42.97
2018-04-24T11:38:02.678Z,42.97
2018-04-24T11:39:02.911Z,42.87
2018-04-24T11:40:03.058Z,42.58
2018-04-24T11:41:03.251Z,42.68
2018-04-24T11:42:03.439Z,42.68
2018-04-24T11:43:03.618Z,42.58
2018-04-24T11:44:03.887Z,42.68
2018-04-24T11:45:04.080Z,42.68
2018-04-24T11:46:04.190Z,42.68
2018-04-24T11:47:04.384Z,42.87
2018-04-24T11:48:04.809Z,43.07
2018-04-24T11:49:04.756Z,43.35
2018-04-24T11:50:04.937Z,43.35
2018-04-24T11:51:05.140Z,44.20
2018-04-24T11:52:05.306Z,44.89
2018-04-24T11:53:05.494Z,44.70
2018-04-24T11:54:05.683Z,44.79
2018-04-24T11:55:05.871Z,44.70
2018-04-24T11:56:06.059Z,44.79
2018-04-24T11:57:06.313Z,44.89
2018-04-24T11:58:06.455Z,44.99
2018-04-24T11:59:06.636Z,45.18
2018-04-24T12:00:06.824Z,46.02
2018-04-24T12:01:07.019Z,46.21
2018-04-24T12:02:07.195Z,46.12
2018-04-24T12:03:07.381Z,46.41
2018-04-24T12:04:07.574Z,46.98
2018-04-24T12:05:07.749Z,46.79
2018-04-24T12:06:07.938Z,46.59
2018-04-24T12:07:08.122Z,46.59
2018-04-24T12:08:08.294Z,46.69
2018-04-24T12:09:08.497Z,46.89
2018-04-24T12:10:08.675Z,46.89
2018-04-24T12:11:08.857Z,47.17
2018-04-24T12:12:09.046Z,47.85
2018-04-24T12:13:09.229Z,47.75
2018-04-24T12:14:09.411Z,47.82
2018-04-24T12:15:09.598Z,47.66
2018-04-24T12:16:09.800Z,47.66
2018-04-24T12:17:09.973Z,47.75
2018-04-24T12:18:10.181Z,47.58
2018-04-24T12:19:10.448Z,47.58
2018-04-24T12:20:10.521Z,47.68
2018-04-24T12:21:10.708Z,47.68
2018-04-24T12:22:10.896Z,47.87
2018-04-24T12:23:11.153Z,47.68
2018-04-24T12:26:43.527Z,46.72
2018-04-24T12:27:43.719Z,46.23
2018-04-24T12:28:43.899Z,46.62
2018-04-24T12:29:44.097Z,46.62
2018-04-24T12:30:44.275Z,46.43
2018-04-24T12:31:44.456Z,46.43
2018-04-24T12:32:44.877Z,46.41
2018-04-24T12:33:44.817Z,46.31
2018-04-24T12:34:45.004Z,46.41
2018-04-24T12:35:45.191Z,46.50
2018-04-24T12:36:45.394Z,46.21
2018-04-24T12:37:45.555Z,46.21
2018-04-24T12:38:45.750Z,46.04
2018-04-24T12:39:46.173Z,45.28
2018-04-24T12:40:46.118Z,45.85
2018-04-24T12:41:46.313Z,45.85
2018-04-24T12:42:46.746Z,45.28
2018-04-24T12:43:46.685Z,45.08
2018-04-24T12:44:46.869Z,45.18
2018-04-24T12:45:47.094Z,44.60
2018-04-24T12:46:47.240Z,44.99
2018-04-24T12:47:47.431Z,45.10
2018-04-24T12:48:47.615Z,45.20
2018-04-24T12:49:47.808Z,44.99
2018-04-24T12:50:47.983Z,44.79
2018-04-24T12:51:48.208Z,45.01
2018-04-24T12:52:48.365Z,44.62
2018-04-24T12:53:48.552Z,44.62
2018-04-24T12:54:48.732Z,44.72
2018-04-24T12:55:48.909Z,44.72
2018-04-24T12:56:49.087Z,44.35
2018-04-24T12:57:49.312Z,44.74
2018-04-24T12:58:49.459Z,44.26
2018-04-24T12:59:49.637Z,43.88
2018-04-24T13:00:49.873Z,44.53
2018-04-24T13:01:50.010Z,44.43
2018-04-24T13:02:53.119Z,45.10
2018-04-24T13:03:50.746Z,44.91
2018-04-24T13:04:50.607Z,45.28
2018-04-24T13:05:51.585Z,45.20
2018-04-24T13:06:51.015Z,45.78
2018-04-24T13:07:51.201Z,45.29
2018-04-24T13:08:51.417Z,45.76
2018-04-24T13:09:51.665Z,46.36
2018-04-24T13:10:51.763Z,46.36
2018-04-24T13:11:51.944Z,45.78
2018-04-24T13:12:52.127Z,45.78
2018-04-24T13:13:52.315Z,45.10
2018-04-24T13:14:52.976Z,44.93
2018-04-24T13:15:52.719Z,45.03